Time;durP1;ratioP1;P1;durP2;ratioP2;P2;SDS_P1;SDS_P2;PMS_P1;PMS_P2;Temp;Humidity;BMP_temperature;BMP_pressure;BME280_temperature;BME280_humidity;BME280_pressure;Samples;Min_cycle;Max_cycle;Signal;HPM_P1;HPM_P2
2020/12/18 10:41:46;;;;;;;10.25;4.43;;;;;;;15.47;76.75;102018.78;5082700;27;1400095;-87
2020/12/18 10:44:12;;;;;;;9.73;4.40;;;;;;;15.91;75.57;102010.47;5093956;28;20073;-87
2020/12/18 10:46:40;;;;;;;12.98;4.50;;;;;;;16.39;73.79;102009.00;5077674;28;20051;-87
2020/12/18 10:49:09;;;;;;;10.38;4.20;;;;;;;16.85;72.50;101995.91;5070398;28;20388;-87
2020/12/18 10:51:38;;;;;;;9.82;3.85;;;;;;;17.36;70.91;101986.97;5073323;28;20040;-87
2020/12/18 10:54:05;;;;;;;10.32;4.18;;;;;;;17.69;70.16;101995.78;5073342;28;20111;-85
2020/12/18 10:56:31;;;;;;;11.32;4.00;;;;;;;18.07;68.91;101992.75;5072836;28;20046;-87
2020/12/18 10:58:57;;;;;;;9.70;3.83;;;;;;;18.39;68.41;101979.25;5073444;28;20134;-86
2020/12/18 11:01:23;;;;;;;10.43;3.65;;;;;;;18.64;67.50;101980.44;5106487;28;20054;-87
2020/12/18 11:03:49;;;;;;;9.63;3.80;;;;;;;18.83;66.57;101980.22;5089393;28;20252;-87
2020/12/18 11:06:16;;;;;;;9.07;3.63;;;;;;;18.91;65.81;101971.69;5075818;28;20047;-86
2020/12/18 11:08:42;;;;;;;7.15;3.28;;;;;;;18.97;65.48;101974.88;5092678;28;20063;-88
2020/12/18 11:11:14;;;;;;;7.30;3.30;;;;;;;18.99;65.44;101969.41;5091327;28;20043;-86
2020/12/18 11:13:41;;;;;;;9.00;3.65;;;;;;;19.19;65.85;101966.31;5079640;28;20044;-86
2020/12/18 11:16:08;;;;;;;8.15;3.50;;;;;;;19.50;65.63;101953.59;5076006;28;20035;-87
2020/12/18 11:18:36;;;;;;;8.52;3.20;;;;;;;19.76;64.81;101948.34;5091397;28;20031;-86
2020/12/18 11:21:04;;;;;;;7.85;3.50;;;;;;;19.95;64.43;101943.50;5076530;28;20051;-88
2020/12/18 11:23:32;;;;;;;9.73;3.50;;;;;;;20.16;64.25;101943.00;5085675;28;20044;-87
2020/12/18 11:25:58;;;;;;;6.65;3.38;;;;;;;20.39;63.95;101942.28;5093546;28;20047;-87
2020/12/18 11:28:24;;;;;;;8.88;3.30;;;;;;;20.63;63.79;101944.28;5085811;28;20041;-88
2020/12/18 11:30:50;;;;;;;9.95;3.55;;;;;;;20.89;62.81;101944.25;5086766;28;20043;-87
2020/12/18 11:33:16;;;;;;;8.38;3.17;;;;;;;21.00;62.47;101941.63;5089833;28;20032;-86
2020/12/18 11:35:44;;;;;;;7.30;3.30;;;;;;;21.17;61.99;101938.63;5087417;28;20040;-85
2020/12/18 11:38:10;;;;;;;8.02;2.63;;;;;;;21.37;61.97;101938.97;5089202;28;20138;-87
2020/12/18 11:40:37;;;;;;;5.95;2.55;;;;;;;21.58;61.15;101936.56;5066492;28;20037;-88
2020/12/18 11:43:04;;;;;;;8.45;2.83;;;;;;;21.67;60.26;101937.72;5082939;28;20442;-88
2020/12/18 11:45:30;;;;;;;6.32;2.80;;;;;;;21.76;60.17;101935.19;5092229;28;20036;-89
2020/12/18 11:47:56;;;;;;;11.00;2.70;;;;;;;21.82;59.58;101931.16;5072333;28;20397;-88
2020/12/18 11:50:23;;;;;;;7.90;2.25;;;;;;;21.82;59.59;101925.78;5085891;28;20062;-89
2020/12/18 11:52:49;;;;;;;6.57;2.20;;;;;;;21.80;58.43;101911.56;5057219;28;20101;-88
2020/12/18 11:55:15;;;;;;;7.03;2.42;;;;;;;21.82;59.17;101890.72;5090709;22;20068;-79
2020/12/18 11:57:43;;;;;;;7.28;1.90;;;;;;;21.90;57.95;101888.28;5034535;28;20072;-79
2020/12/18 12:00:09;;;;;;;6.75;1.90;;;;;;;21.81;57.82;101877.34;5051652;28;20509;-79
2020/12/18 12:02:38;;;;;;;6.00;1.88;;;;;;;21.81;58.43;101872.81;5039413;28;20064;-80
2020/12/18 12:05:04;;;;;;;5.32;1.65;;;;;;;21.87;57.04;101861.56;5071483;28;20109;-79
2020/12/18 12:07:30;;;;;;;6.47;2.00;;;;;;;21.81;57.32;101862.00;5052810;28;20037;-79
2020/12/18 12:09:59;;;;;;;5.55;1.80;;;;;;;21.92;57.39;101842.31;5031857;28;20065;-80
2020/12/18 12:12:25;;;;;;;4.90;1.50;;;;;;;21.95;56.96;101853.72;5034193;28;20041;-81
2020/12/18 12:14:51;;;;;;;6.00;1.88;;;;;;;21.92;56.73;101843.16;5032069;28;20062;-81
2020/12/18 12:17:17;;;;;;;6.30;1.83;;;;;;;21.94;56.52;101862.81;5016006;28;20480;-81
2020/12/18 12:19:43;;;;;;;5.05;1.60;;;;;;;21.96;55.88;101850.06;5030098;28;20045;-80
2020/12/18 12:22:09;;;;;;;4.00;1.55;;;;;;;22.03;56.05;101854.97;5017044;28;20046;-80
2020/12/18 12:24:42;;;;;;;5.22;1.75;;;;;;;22.15;56.66;101854.00;5019406;28;20069;-81
2020/12/18 12:27:11;;;;;;;5.40;1.83;;;;;;;22.22;55.00;101860.66;5018469;28;20037;-81
2020/12/18 12:29:37;;;;;;;5.38;1.50;;;;;;;22.17;55.27;101863.72;5027923;28;20054;-82
2020/12/18 12:32:05;;;;;;;7.03;1.88;;;;;;;22.25;55.32;101846.97;5041397;28;20045;-81
2020/12/18 12:34:32;;;;;;;4.97;1.50;;;;;;;22.38;54.30;101848.66;5029757;28;20045;-80
2020/12/18 12:36:59;;;;;;;4.97;1.70;;;;;;;22.37;53.64;101850.53;5037939;28;20041;-82
2020/12/18 12:39:25;;;;;;;6.90;1.40;;;;;;;22.23;53.57;101846.19;5043828;28;20117;-82
2020/12/18 12:41:52;;;;;;;5.28;1.80;;;;;;;22.14;54.29;101836.97;5032080;28;20037;-82
2020/12/18 12:44:18;;;;;;;6.50;1.55;;;;;;;21.85;54.10;101836.56;5031826;28;20053;-81
2020/12/18 12:46:44;;;;;;;5.75;1.60;;;;;;;21.20;54.64;101835.97;5046566;28;20048;-81
2020/12/18 12:49:10;;;;;;;6.88;1.80;;;;;;;20.58;55.78;101822.56;5040543;28;20061;-81
2020/12/18 12:51:37;;;;;;;8.05;1.80;;;;;;;20.10;56.52;101822.38;5026639;28;20069;-81
2020/12/18 12:54:03;;;;;;;6.93;1.75;;;;;;;19.60;57.14;101814.97;5039153;28;20097;-81
2020/12/18 12:56:29;;;;;;;5.13;1.70;;;;;;;19.05;58.04;101813.28;5030300;28;20045;-81
2020/12/18 12:58:55;;;;;;;4.00;1.70;;;;;;;18.73;59.62;101797.41;5035310;28;20045;-80
2020/12/18 13:01:21;;;;;;;5.18;1.65;;;;;;;18.72;59.29;101795.66;5035553;28;20036;-81
2020/12/18 13:03:47;;;;;;;9.43;1.92;;;;;;;18.68;59.64;101783.41;5027276;28;20117;-81
2020/12/18 13:06:21;;;;;;;3.67;1.50;;;;;;;18.56;59.49;101794.94;5046143;28;20038;-80
2020/12/18 13:08:47;;;;;;;7.38;1.80;;;;;;;18.56;59.89;101789.56;5047165;28;20097;-81
2020/12/18 13:11:13;;;;;;;5.70;1.70;;;;;;;18.29;60.27;101798.41;5030614;28;20041;-81
2020/12/18 13:13:39;;;;;;;5.22;1.50;;;;;;;17.99;60.71;101796.66;5032349;28;20083;-81
2020/12/18 13:16:05;;;;;;;4.60;1.50;;;;;;;17.68;61.33;101787.75;5030720;28;20109;-81
2020/12/18 13:18:31;;;;;;;4.97;1.50;;;;;;;17.37;61.58;101787.84;5029191;28;20042;-82
2020/12/18 13:20:57;;;;;;;3.60;1.40;;;;;;;17.01;62.44;101780.97;5039230;28;20033;-81
2020/12/18 13:23:23;;;;;;;5.47;1.50;;;;;;;16.62;63.20;101758.19;5027505;28;20168;-82
2020/12/18 13:25:49;;;;;;;4.25;1.52;;;;;;;16.29;63.96;101761.75;5015114;28;20101;-82
2020/12/18 13:28:27;;;;;;;4.82;1.48;;;;;;;16.05;64.87;101754.13;5018527;28;20046;-81
2020/12/18 13:30:53;;;;;;;7.03;1.92;;;;;;;15.88;65.16;101746.13;5013807;28;20045;-81
2020/12/18 13:33:19;;;;;;;3.55;1.60;;;;;;;15.71;65.50;101739.84;5038315;28;20049;-81
2020/12/18 13:35:46;;;;;;;7.43;2.10;;;;;;;15.55;66.00;101744.25;5027365;28;20049;-81
2020/12/18 13:38:13;;;;;;;7.03;2.17;;;;;;;15.51;66.24;101745.38;5044139;28;20049;-81
2020/12/18 13:40:39;;;;;;;5.60;2.10;;;;;;;15.56;66.58;101746.00;5043460;28;20190;-81
2020/12/18 13:43:05;;;;;;;5.50;2.00;;;;;;;15.70;66.48;101754.13;5057007;28;20065;-80
2020/12/18 13:45:32;;;;;;;4.25;1.85;;;;;;;15.68;66.16;101745.34;5028241;28;20044;-81
2020/12/18 13:47:59;;;;;;;4.10;1.73;;;;;;;15.60;66.13;101747.56;5046768;28;20042;-79
2020/12/18 13:50:25;;;;;;;9.73;2.00;;;;;;;15.47;66.24;101739.31;5027782;28;20048;-80
2020/12/18 13:52:52;;;;;;;4.95;1.73;;;;;;;15.36;66.37;101745.19;5043932;28;20121;-80
2020/12/18 13:55:18;;;;;;;5.75;1.85;;;;;;;15.32;66.69;101743.63;5029750;28;20531;-80
2020/12/18 13:57:44;;;;;;;7.55;1.95;;;;;;;15.37;66.54;101746.94;5046330;28;20064;-80
2020/12/18 14:00:10;;;;;;;5.70;1.80;;;;;;;15.48;66.24;101742.84;5044169;28;20051;-81
2020/12/18 14:02:36;;;;;;;6.85;2.00;;;;;;;15.58;66.16;101744.97;5038556;28;20061;-81
2020/12/18 14:05:03;;;;;;;4.55;1.88;;;;;;;15.70;65.54;101746.13;5038267;28;20052;-81
2020/12/18 14:07:30;;;;;;;5.20;1.90;;;;;;;15.83;65.36;101742.84;5034878;28;20497;-80
2020/12/18 14:09:56;;;;;;;5.50;1.67;;;;;;;15.99;64.83;101737.56;5035884;28;20045;-80
2020/12/18 14:12:22;;;;;;;5.00;1.40;;;;;;;15.99;64.46;101738.41;5049606;28;20051;-80
2020/12/18 14:14:48;;;;;;;5.20;1.73;;;;;;;15.99;64.31;101733.06;5027893;28;20049;-80
2020/12/18 14:17:18;;;;;;;5.80;1.50;;;;;;;15.98;63.75;101736.69;5017016;28;20049;-81
2020/12/18 14:19:44;;;;;;;4.72;1.50;;;;;;;15.89;63.72;101747.88;5028470;28;20054;-80
2020/12/18 14:22:13;;;;;;;4.30;1.70;;;;;;;15.70;63.79;101754.13;5006173;28;20111;-81
2020/12/18 14:24:39;;;;;;;6.63;1.80;;;;;;;15.45;64.12;101743.00;5022828;28;20050;-80
2020/12/18 14:27:05;;;;;;;4.63;1.30;;;;;;;15.16;64.37;101737.31;5015835;28;20091;-80
2020/12/18 14:29:31;;;;;;;5.30;1.58;;;;;;;14.91;64.70;101738.53;5029072;28;20042;-81
2020/12/18 14:31:57;;;;;;;3.20;1.10;;;;;;;14.70;65.13;101728.94;5017722;28;20493;-80
2020/12/18 14:34:24;;;;;;;5.55;1.30;;;;;;;14.54;65.73;101734.97;5028203;28;20046;-80
2020/12/18 14:36:50;;;;;;;9.60;1.48;;;;;;;14.38;66.00;101728.63;5010540;28;20416;-80
2020/12/18 14:39:16;;;;;;;4.15;1.35;;;;;;;14.25;66.16;101738.13;5000265;28;20419;-79
2020/12/18 14:41:42;;;;;;;4.07;1.27;;;;;;;14.14;66.64;101735.94;5016525;28;20389;-80
2020/12/18 14:44:08;;;;;;;2.40;1.38;;;;;;;14.04;66.68;101735.50;5032666;28;20041;-80
2020/12/18 14:46:34;;;;;;;3.00;1.25;;;;;;;13.96;66.65;101735.84;5016716;28;20038;-80
2020/12/18 14:49:00;;;;;;;3.70;1.70;;;;;;;13.88;66.74;101742.44;5019047;28;20037;-80
2020/12/18 14:51:26;;;;;;;4.50;1.45;;;;;;;13.75;66.71;101756.31;5036620;28;20037;-81
2020/12/18 14:53:52;;;;;;;6.50;1.80;;;;;;;13.61;67.06;101748.03;5025074;28;20420;-81
2020/12/18 14:56:19;;;;;;;2.47;1.23;;;;;;;13.44;67.35;101744.31;5030621;28;20042;-79
2020/12/18 14:58:46;;;;;;;6.00;1.70;;;;;;;13.28;67.31;101748.53;5024357;28;20117;-81
2020/12/18 15:01:12;;;;;;;5.20;1.40;;;;;;;13.12;67.55;101755.41;5024354;28;20043;-81
2020/12/18 15:03:54;;;;;;;4.63;1.50;;;;;;;12.93;67.94;101753.50;5050736;28;20056;-80
2020/12/18 15:06:20;;;;;;;7.07;1.58;;;;;;;12.78;67.95;101756.78;5032459;28;20045;-80
2020/12/18 15:08:47;;;;;;;2.75;1.50;;;;;;;12.62;68.27;101768.00;5032271;28;20038;-80
2020/12/18 15:11:13;;;;;;;7.15;2.00;;;;;;;12.45;68.38;101759.78;5013382;28;20500;-81
2020/12/18 15:13:40;;;;;;;6.07;2.00;;;;;;;12.30;68.78;101765.69;5005566;28;20141;-80
2020/12/18 15:16:06;;;;;;;5.25;1.85;;;;;;;12.13;68.69;101764.56;5017716;28;20065;-80
2020/12/18 15:18:32;;;;;;;4.78;2.00;;;;;;;11.96;68.79;101765.16;5017924;28;20026;-79
2020/12/18 15:20:58;;;;;;;6.57;1.70;;;;;;;11.80;69.04;101772.75;5030950;28;20038;-79
2020/12/18 15:23:24;;;;;;;5.45;1.80;;;;;;;11.66;69.32;101775.03;5017281;28;20050;-80
2020/12/18 15:25:50;;;;;;;5.53;2.33;;;;;;;11.53;69.67;101774.59;5032085;28;20054;-79
2020/12/18 15:28:16;;;;;;;4.10;2.10;;;;;;;11.40;69.99;101774.13;5036290;28;20034;-80
2020/12/18 15:30:42;;;;;;;5.95;2.08;;;;;;;11.30;70.32;101778.00;5033537;28;20034;-79
2020/12/18 15:33:08;;;;;;;5.13;2.13;;;;;;;11.19;70.29;101781.03;5012404;28;20048;-80
2020/12/18 15:35:35;;;;;;;4.75;2.20;;;;;;;11.10;70.46;101782.16;5024329;28;20072;-80
2020/12/18 15:38:01;;;;;;;4.30;2.40;;;;;;;11.01;70.59;101778.94;5015712;28;20145;-80
2020/12/18 15:40:27;;;;;;;10.30;2.90;;;;;;;10.89;70.06;101788.16;5017389;28;20037;-80
2020/12/18 15:42:53;;;;;;;5.63;2.40;;;;;;;10.77;70.73;101783.22;5018195;28;20065;-80
2020/12/18 15:45:19;;;;;;;8.82;2.55;;;;;;;10.68;70.65;101785.25;5035973;28;20045;-81
2020/12/18 15:47:45;;;;;;;4.53;2.60;;;;;;;10.58;70.84;101783.78;5020600;28;20065;-80
2020/12/18 15:50:12;;;;;;;5.30;2.60;;;;;;;10.45;71.29;101783.31;5016335;28;20460;-80
2020/12/18 15:52:38;;;;;;;6.30;2.97;;;;;;;10.31;71.32;101781.03;5037954;28;20298;-80
2020/12/18 15:55:04;;;;;;;10.38;2.85;;;;;;;10.17;71.26;101788.50;5045214;28;20048;-82
2020/12/18 15:57:30;;;;;;;9.07;3.28;;;;;;;10.06;71.38;101790.56;5025934;28;20049;-81
2020/12/18 15:59:56;;;;;;;8.43;3.33;;;;;;;9.94;71.58;101787.34;5010755;28;20046;-79
2020/12/18 16:02:22;;;;;;;8.30;3.50;;;;;;;9.86;71.91;101786.66;5045880;28;20041;-80
2020/12/18 16:04:48;;;;;;;8.00;3.90;;;;;;;9.79;71.76;101787.75;5028517;28;20065;-80
2020/12/18 16:07:15;;;;;;;10.55;4.28;;;;;;;9.71;72.23;101785.31;5048111;28;20109;-80
2020/12/18 16:09:41;;;;;;;14.10;10.07;;;;;;;9.66;72.09;101786.31;5019520;28;20058;-79
2020/12/18 16:12:08;;;;;;;12.23;7.10;;;;;;;9.60;72.26;101781.19;5048286;28;20057;-80
2020/12/18 16:14:35;;;;;;;9.18;5.30;;;;;;;9.55;72.35;101787.50;5052543;28;20037;-79
2020/12/18 16:17:02;;;;;;;15.57;5.70;;;;;;;9.50;72.36;101792.00;5017925;28;20049;-80
2020/12/18 16:19:28;;;;;;;15.07;6.85;;;;;;;9.45;72.77;101793.91;5017001;28;20112;-80
2020/12/18 16:21:54;;;;;;;15.00;6.20;;;;;;;9.41;72.68;101794.88;5041936;28;20060;-80
2020/12/18 16:24:20;;;;;;;12.93;6.45;;;;;;;9.37;72.57;101795.88;5032132;28;20045;-80
2020/12/18 16:26:46;;;;;;;13.23;6.30;;;;;;;9.34;72.74;101795.94;5036745;28;20065;-80
2020/12/18 16:29:12;;;;;;;13.57;7.03;;;;;;;9.29;72.59;101792.56;5018350;28;20525;-80
2020/12/18 16:31:38;;;;;;;11.73;6.30;;;;;;;9.25;72.83;101790.88;5012136;28;20045;-80
2020/12/18 16:34:06;;;;;;;15.45;7.35;;;;;;;9.22;73.10;101790.97;5036627;28;20049;-80
2020/12/18 16:36:32;;;;;;;11.45;6.50;;;;;;;9.18;73.18;101798.09;5015274;28;20045;-80
2020/12/18 16:38:59;;;;;;;20.13;8.05;;;;;;;9.15;73.29;101785.84;5041661;28;20128;-80
2020/12/18 16:41:36;;;;;;;8.68;5.63;;;;;;;9.11;73.30;101784.16;5040056;28;20417;-80
2020/12/18 16:44:02;;;;;;;15.85;8.52;;;;;;;9.10;73.38;101782.44;5024421;28;20045;-80
2020/12/18 16:46:28;;;;;;;14.52;6.60;;;;;;;9.08;73.58;101784.25;5024970;28;20045;-80
2020/12/18 16:48:55;;;;;;;12.60;5.85;;;;;;;9.06;73.55;101780.78;5045662;28;20045;-80
2020/12/18 16:51:24;;;;;;;13.30;5.60;;;;;;;9.06;73.59;101775.47;5041774;28;20077;-80
2020/12/18 16:53:51;;;;;;;13.07;5.57;;;;;;;9.04;73.48;101777.28;5020891;28;20046;-80
2020/12/18 16:56:22;;;;;;;11.68;5.68;;;;;;;9.03;73.57;101772.91;5041619;28;20049;-80
2020/12/18 16:58:49;;;;;;;10.98;5.63;;;;;;;9.02;73.68;101768.50;5021621;28;20056;-80
2020/12/18 17:01:15;;;;;;;12.30;5.57;;;;;;;9.02;73.93;101763.22;5022312;28;20048;-80
2020/12/18 17:03:42;;;;;;;12.32;5.57;;;;;;;9.02;73.19;101765.88;5036177;28;20049;-80
2020/12/18 17:06:10;;;;;;;14.85;5.90;;;;;;;9.01;73.51;101758.84;5017232;28;20049;-80
2020/12/18 17:08:41;;;;;;;10.00;5.05;;;;;;;9.00;73.55;101759.75;5005848;28;20539;-80
2020/12/18 17:11:15;;;;;;;9.88;5.40;;;;;;;8.99;73.58;101765.97;5034593;28;20065;-80
2020/12/18 17:13:44;;;;;;;10.25;6.90;;;;;;;8.96;73.82;101758.09;5021815;28;20045;-80
2020/12/18 17:16:10;;;;;;;13.38;6.65;;;;;;;8.95;73.66;101754.59;5020887;28;20041;-80
2020/12/18 17:18:37;;;;;;;11.57;6.43;;;;;;;8.95;73.60;101761.66;5012009;28;20508;-80
2020/12/18 17:21:03;;;;;;;10.20;6.45;;;;;;;8.94;73.59;101749.34;5029434;28;20420;-79
2020/12/18 17:23:29;;;;;;;13.23;6.00;;;;;;;8.93;73.56;101752.91;5010090;28;20041;-79
2020/12/18 17:25:55;;;;;;;10.32;5.32;;;;;;;8.93;73.76;101744.97;5022768;28;20044;-80
2020/12/18 17:28:21;;;;;;;8.55;4.93;;;;;;;8.94;73.47;101739.63;5025252;28;20053;-79
2020/12/18 17:30:48;;;;;;;9.27;5.10;;;;;;;8.93;73.67;101732.63;5019081;28;20685;-79
2020/12/18 17:33:14;;;;;;;11.52;5.07;;;;;;;8.94;73.70;101733.47;5027477;28;20412;-80
2020/12/18 17:35:40;;;;;;;9.05;5.47;;;;;;;8.98;73.47;101732.50;5010770;28;20097;-80
2020/12/18 17:38:06;;;;;;;9.70;6.55;;;;;;;9.01;73.81;101735.06;5006433;28;20121;-80
2020/12/18 17:40:32;;;;;;;9.05;4.35;;;;;;;9.01;73.83;101734.22;5018293;28;20034;-81
2020/12/18 17:42:58;;;;;;;8.38;4.93;;;;;;;9.00;73.32;101741.25;5023862;28;20048;-79
2020/12/18 17:45:24;;;;;;;7.97;4.57;;;;;;;8.97;73.48;101733.41;5031331;28;20042;-79
2020/12/18 17:47:51;;;;;;;12.18;4.95;;;;;;;8.94;73.39;101736.13;5012880;28;20039;-79
2020/12/18 17:50:17;;;;;;;9.75;5.50;;;;;;;8.93;73.60;101737.06;5027466;28;20038;-79
2020/12/18 17:52:43;;;;;;;9.20;4.78;;;;;;;8.91;73.48;101738.81;5035424;28;20124;-78
2020/12/18 17:55:10;;;;;;;11.05;7.80;;;;;;;8.87;73.19;101737.16;5053202;23;20030;-85
2020/12/18 17:57:40;;;;;;;10.75;5.82;;;;;;;8.84;73.35;101731.97;5031945;28;20132;-85
2020/12/18 18:00:08;;;;;;;10.40;5.28;;;;;;;8.82;73.68;101739.06;5014659;28;20048;-86
2020/12/18 18:02:39;;;;;;;11.75;5.47;;;;;;;8.79;73.46;101739.13;5033456;28;20052;-86
2020/12/18 18:05:05;;;;;;;11.27;5.82;;;;;;;8.77;73.51;101742.66;5034106;28;20049;-86
2020/12/18 18:07:31;;;;;;;8.63;5.47;;;;;;;8.76;73.46;101746.22;5026846;28;20073;-86
2020/12/18 18:09:57;;;;;;;9.52;5.28;;;;;;;8.76;73.83;101746.22;5028400;28;20104;-87
2020/12/18 18:12:24;;;;;;;26.17;13.57;;;;;;;8.76;73.47;101740.94;5043719;28;20066;-87
2020/12/18 18:14:50;;;;;;;84.65;40.15;;;;;;;8.76;73.57;101740.94;5020339;28;20053;-87
2020/12/18 18:17:16;;;;;;;9.27;6.15;;;;;;;8.77;73.79;101745.31;5013595;28;20556;-86
2020/12/18 18:19:42;;;;;;;16.13;13.20;;;;;;;8.79;73.75;101744.41;5000273;28;20128;-86
2020/12/18 18:22:08;;;;;;;12.48;8.00;;;;;;;8.80;73.61;101754.06;5019372;28;20073;-86
2020/12/18 18:24:34;;;;;;;12.50;10.05;;;;;;;8.76;73.67;101746.22;5018995;28;20043;-87
2020/12/18 18:27:00;;;;;;;10.05;5.75;;;;;;;8.72;73.34;101749.84;5020195;28;20044;-85
2020/12/18 18:29:27;;;;;;;11.18;4.80;;;;;;;8.72;73.40;101748.97;5006480;28;20080;-86
2020/12/18 18:31:53;;;;;;;10.73;4.85;;;;;;;8.70;73.27;101751.66;5018993;28;20033;-86
2020/12/18 18:34:19;;;;;;;8.48;4.95;;;;;;;8.68;73.27;101742.00;4997711;28;20045;-86
2020/12/18 18:36:46;;;;;;;7.78;4.60;;;;;;;8.66;73.32;101733.25;4998209;28;20136;-85
2020/12/18 18:39:12;;;;;;;11.43;5.38;;;;;;;8.65;73.56;101736.81;5002665;28;20072;-86
2020/12/18 18:41:39;;;;;;;11.85;4.15;;;;;;;8.64;73.55;101730.66;5008798;28;20400;-85
2020/12/18 18:44:07;;;;;;;7.45;4.10;;;;;;;8.59;73.22;101727.25;5017030;28;20041;-86
2020/12/18 18:46:34;;;;;;;6.60;4.60;;;;;;;8.57;73.38;101734.34;5030911;28;20048;-85
2020/12/18 18:49:00;;;;;;;9.30;4.78;;;;;;;8.51;73.56;101730.09;5017815;28;20056;-85
2020/12/18 18:51:28;;;;;;;8.50;4.93;;;;;;;8.50;73.40;101735.38;5020266;28;20037;-84
2020/12/18 18:53:54;;;;;;;10.05;5.05;;;;;;;8.48;73.60;101729.28;4999579;28;20053;-86
2020/12/18 18:56:21;;;;;;;9.73;4.47;;;;;;;8.49;73.44;101731.00;5018833;28;20098;-86
2020/12/18 18:58:47;;;;;;;8.48;4.57;;;;;;;8.50;73.33;101722.19;5006836;28;20099;-86
2020/12/18 19:01:30;;;;;;;7.93;5.00;;;;;;;8.51;73.44;101718.63;5028017;28;20053;-86
2020/12/18 19:03:56;;;;;;;11.88;6.40;;;;;;;8.52;73.57;101720.38;5013179;28;20481;-86
2020/12/18 19:06:22;;;;;;;12.80;6.85;;;;;;;8.52;73.54;101725.66;5023902;28;20056;-87
2020/12/18 19:08:49;;;;;;;72.07;36.95;;;;;;;8.53;73.71;101716.81;5024799;28;20056;-87
2020/12/18 19:11:16;;;;;;;12.00;6.50;;;;;;;8.54;73.64;101721.22;5023758;28;20042;-87
2020/12/18 19:13:42;;;;;;;15.90;10.60;;;;;;;8.57;73.57;101718.50;5002751;28;20141;-87
2020/12/18 19:16:08;;;;;;;13.70;10.80;;;;;;;8.61;73.70;101720.19;5005253;28;20064;-86
2020/12/18 19:18:34;;;;;;;11.55;8.23;;;;;;;8.62;73.59;101716.59;5007353;28;20050;-87
2020/12/18 19:21:00;;;;;;;16.35;10.52;;;;;;;8.66;73.65;101723.56;4997939;28;20038;-87
2020/12/18 19:23:26;;;;;;;11.45;7.38;;;;;;;8.66;73.71;101718.28;5012740;28;20068;-87
2020/12/18 19:25:52;;;;;;;8.75;6.03;;;;;;;8.66;73.60;101713.00;5006648;28;20489;-87
2020/12/18 19:28:18;;;;;;;7.03;5.65;;;;;;;8.66;73.75;101713.00;5004565;28;20041;-86
2020/12/18 19:30:44;;;;;;;7.97;5.30;;;;;;;8.67;73.80;101714.75;5021055;28;20046;-87
2020/12/18 19:33:13;;;;;;;9.00;5.70;;;;;;;8.67;73.61;101705.97;5030289;28;20361;-87
2020/12/18 19:35:41;;;;;;;11.57;5.53;;;;;;;8.65;73.42;101706.00;5028576;28;20068;-87
2020/12/18 19:38:07;;;;;;;8.10;5.40;;;;;;;8.63;73.13;101699.88;5030571;28;20056;-87
2020/12/18 19:40:33;;;;;;;11.63;5.30;;;;;;;8.59;73.37;101706.13;5031978;28;20108;-87
2020/12/18 19:43:00;;;;;;;9.75;5.00;;;;;;;8.54;73.14;101698.31;5028114;28;20516;-87
2020/12/18 19:45:26;;;;;;;9.85;5.68;;;;;;;8.55;73.49;101699.16;5023305;28;20041;-87
2020/12/18 19:47:53;;;;;;;9.80;5.40;;;;;;;8.54;73.58;101698.31;5022707;28;20128;-87
2020/12/18 19:50:20;;;;;;;8.90;5.95;;;;;;;8.53;73.72;101700.97;5006797;28;20064;-88
2020/12/18 19:52:46;;;;;;;9.80;6.00;;;;;;;8.51;73.34;101697.50;5023199;28;20045;-87
2020/12/18 19:55:12;;;;;;;9.70;5.72;;;;;;;8.48;73.44;101692.31;5022872;28;20140;-88
2020/12/18 19:57:47;;;;;;;16.65;11.15;;;;;;;8.48;73.45;101697.59;5023843;28;20046;-87
2020/12/18 20:00:15;;;;;;;9.02;6.90;;;;;;;8.46;73.25;101688.84;5038448;28;20038;-88
2020/12/18 20:02:41;;;;;;;9.80;6.88;;;;;;;8.45;73.53;101689.72;5035409;28;20390;-87
2020/12/18 20:05:08;;;;;;;11.02;9.02;;;;;;;8.45;73.26;101687.09;5023441;28;20045;-87
2020/12/18 20:07:36;;;;;;;11.55;8.57;;;;;;;8.45;73.69;101679.19;5005813;28;20049;-88
2020/12/18 20:10:04;;;;;;;10.25;6.40;;;;;;;8.44;73.46;101680.06;5021925;28;20057;-87
2020/12/18 20:12:31;;;;;;;10.40;7.18;;;;;;;8.43;73.40;101679.19;5032707;28;20076;-87
2020/12/18 20:14:57;;;;;;;10.00;6.53;;;;;;;8.43;73.52;101673.06;5013810;28;20057;-88
2020/12/18 20:17:23;;;;;;;10.55;6.72;;;;;;;8.42;73.53;101668.66;5021254;28;20050;-87
2020/12/18 20:19:49;;;;;;;9.93;6.47;;;;;;;8.38;73.61;101674.00;4999498;28;20068;-87
2020/12/18 20:22:16;;;;;;;12.13;6.78;;;;;;;8.36;73.30;101667.91;5002991;28;20041;-87
2020/12/18 20:24:42;;;;;;;9.40;6.75;;;;;;;8.34;73.45;101664.44;5002243;28;20051;-87
2020/12/18 20:27:08;;;;;;;16.58;12.05;;;;;;;8.32;73.65;101662.72;5023010;28;20042;-87
2020/12/18 20:29:34;;;;;;;13.95;10.00;;;;;;;8.33;73.37;101653.91;5023422;28;20033;-87
2020/12/18 20:32:00;;;;;;;12.98;9.15;;;;;;;8.32;73.45;101655.66;5034385;28;20042;-87
2020/12/18 20:34:26;;;;;;;9.98;6.78;;;;;;;8.32;73.48;101650.38;5013027;28;20044;-87
2020/12/18 20:36:52;;;;;;;9.57;6.25;;;;;;;8.32;73.48;101647.72;5014769;28;20053;-88
2020/12/18 20:39:19;;;;;;;8.82;6.18;;;;;;;8.33;73.50;101645.97;5026034;28;20053;-87
2020/12/18 20:41:45;;;;;;;9.30;6.20;;;;;;;8.32;73.44;101645.09;5003622;28;20053;-87
2020/12/18 20:44:11;;;;;;;12.38;6.40;;;;;;;8.30;73.70;101646.91;5000317;28;20053;-87
2020/12/18 20:46:37;;;;;;;11.00;7.97;;;;;;;8.28;73.59;101648.72;5024186;28;20057;-88
2020/12/18 20:49:04;;;;;;;9.15;6.32;;;;;;;8.28;73.61;101643.44;4988573;28;20045;-87
2020/12/18 20:51:31;;;;;;;11.75;6.72;;;;;;;8.30;73.62;101633.69;5020516;28;20520;-88
2020/12/18 20:53:58;;;;;;;9.80;6.35;;;;;;;8.30;73.86;101633.69;5016397;28;20053;-88
2020/12/18 20:56:24;;;;;;;11.38;7.22;;;;;;;8.28;73.49;101630.22;5016331;28;20048;-84
2020/12/18 20:58:51;;;;;;;10.82;7.20;;;;;;;8.27;73.67;101633.78;5016904;28;20045;-87
2020/12/18 21:01:17;;;;;;;11.40;7.20;;;;;;;8.26;73.50;101629.41;5023671;28;20053;-88
2020/12/18 21:03:43;;;;;;;11.32;6.80;;;;;;;8.22;73.32;101633.03;5018798;28;20057;-88
2020/12/18 21:06:12;;;;;;;10.88;6.85;;;;;;;8.19;73.58;101623.41;4991392;28;20052;-85
2020/12/18 21:08:38;;;;;;;11.85;7.43;;;;;;;8.16;73.91;101617.34;5026586;28;20053;-86
2020/12/18 21:11:05;;;;;;;13.93;7.80;;;;;;;8.15;73.65;101620.88;5023566;28;20046;-86
2020/12/18 21:13:33;;;;;;;11.02;7.90;;;;;;;8.13;73.57;101622.66;5023764;28;20056;-86
2020/12/18 21:16:00;;;;;;;16.63;8.65;;;;;;;8.14;73.85;101627.06;5004955;28;20072;-87
2020/12/18 21:18:26;;;;;;;13.60;8.30;;;;;;;8.12;73.86;101610.41;4989990;28;20418;-87
2020/12/18 21:20:52;;;;;;;14.02;7.90;;;;;;;8.09;73.52;101605.19;5020423;28;20041;-88
2020/12/18 21:23:18;;;;;;;15.32;8.18;;;;;;;8.10;73.96;101612.16;5004853;28;20044;-87
2020/12/18 21:25:44;;;;;;;13.77;8.30;;;;;;;8.07;73.75;101607.00;4996608;28;20045;-88
2020/12/18 21:28:19;;;;;;;14.20;8.33;;;;;;;8.04;73.64;101607.03;4998342;28;20064;-87
2020/12/18 21:30:45;;;;;;;16.00;8.57;;;;;;;8.01;73.76;101604.50;5011450;28;20049;-86
2020/12/18 21:33:11;;;;;;;15.82;8.90;;;;;;;7.98;74.04;101614.19;4992577;28;20042;-86
2020/12/18 21:35:37;;;;;;;15.73;8.57;;;;;;;7.95;73.65;101613.41;4990520;28;20054;-87
2020/12/18 21:38:08;;;;;;;21.25;10.63;;;;;;;7.94;73.60;101617.78;5016930;28;20057;-86
2020/12/18 21:40:35;;;;;;;19.63;11.82;;;;;;;7.88;73.61;101612.66;4986307;28;20563;-87
2020/12/18 21:43:01;;;;;;;18.55;10.25;;;;;;;7.85;73.93;101604.78;5027040;28;20048;-86
2020/12/18 21:45:27;;;;;;;15.82;9.95;;;;;;;7.82;73.84;101612.78;4999459;28;20049;-87
2020/12/18 21:47:53;;;;;;;20.52;11.30;;;;;;;7.79;74.01;101603.16;5013850;28;20068;-87
2020/12/18 21:50:19;;;;;;;16.75;12.38;;;;;;;7.78;73.83;101600.59;4995872;28;20493;-87
2020/12/18 21:52:47;;;;;;;18.50;10.23;;;;;;;7.79;73.89;101607.56;5015413;28;20053;-87
2020/12/18 21:55:13;;;;;;;15.88;9.43;;;;;;;7.81;74.34;101605.78;4999277;28;20052;-87
2020/12/18 21:57:40;;;;;;;17.00;9.55;;;;;;;7.82;74.00;101604.88;4996359;28;20049;-87
2020/12/18 22:00:06;;;;;;;17.80;10.35;;;;;;;7.81;74.39;101608.41;5018808;28;20069;-87
2020/12/18 22:02:33;;;;;;;16.92;9.68;;;;;;;7.79;73.84;101607.56;5012102;28;20054;-87
2020/12/18 22:05:01;;;;;;;16.58;10.10;;;;;;;7.76;73.85;101607.63;5008283;28;20050;-88